Time;durP1;ratioP1;P1;durP2;ratioP2;P2;SDS_P1;SDS_P2;PMS_P1;PMS_P2;Temp;Humidity;BMP_temperature;BMP_pressure;BME280_temperature;BME280_humidity;BME280_pressure;Samples;Min_cycle;Max_cycle;Signal;HPM_P1;HPM_P2
2023/10/18 00:01:00;;;;;;;4.65;2.65;;;9.80;99.90;;;;;;5030139;28;20509;-75
2023/10/18 00:03:32;;;;;;;2.95;1.90;;;9.70;99.90;;;;;;5032683;28;20231;-74
2023/10/18 00:05:59;;;;;;;2.45;1.90;;;9.70;99.90;;;;;;5033060;28;20300;-75
2023/10/18 00:08:25;;;;;;;3.13;2.50;;;9.80;99.90;;;;;;5034131;28;20790;-75
2023/10/18 00:10:53;;;;;;;3.30;2.30;;;9.80;99.90;;;;;;5033416;28;20185;-75
2023/10/18 00:13:22;;;;;;;3.85;1.90;;;9.70;99.90;;;;;;5033834;28;20274;-75
2023/10/18 00:15:52;;;;;;;2.60;1.70;;;9.70;99.90;;;;;;5034327;28;20537;-75
2023/10/18 00:18:20;;;;;;;5.05;2.70;;;9.80;99.90;;;;;;5032811;28;20197;-75
2023/10/18 00:20:46;;;;;;;3.50;2.55;;;9.70;99.90;;;;;;5032749;28;20231;-75
2023/10/18 00:23:12;;;;;;;2.67;2.00;;;9.80;99.90;;;;;;5033536;28;20182;-77
2023/10/18 00:25:38;;;;;;;4.10;2.60;;;9.70;99.90;;;;;;5034024;28;20276;-75
2023/10/18 00:28:04;;;;;;;2.53;2.20;;;9.70;99.90;;;;;;5033756;28;20631;-74
2023/10/18 00:30:30;;;;;;;3.00;1.85;;;9.70;99.90;;;;;;5016340;28;20239;-75
2023/10/18 00:32:57;;;;;;;3.47;2.13;;;9.70;99.90;;;;;;5033532;28;20209;-75
2023/10/18 00:35:31;;;;;;;3.00;2.05;;;9.70;99.90;;;;;;5033175;28;20173;-75
2023/10/18 00:37:57;;;;;;;3.30;2.03;;;9.70;99.90;;;;;;5033712;28;20244;-75
2023/10/18 00:43:16;;;;;;;4.22;2.30;;;9.70;99.90;;;;;;5015504;28;20181;-75
2023/10/18 00:45:47;;;;;;;3.45;1.88;;;9.70;99.90;;;;;;5032708;28;20237;-77
2023/10/18 00:48:14;;;;;;;3.20;2.10;;;9.70;99.90;;;;;;5032437;28;20224;-75
2023/10/18 00:50:45;;;;;;;4.43;1.83;;;9.70;99.90;;;;;;5032184;28;20269;-74
2023/10/18 00:53:23;;;;;;;2.28;1.50;;;9.70;99.90;;;;;;5031832;28;20209;-75
2023/10/18 00:56:39;;;;;;;2.72;2.33;;;9.70;99.90;;;;;;5033545;28;20259;-75
2023/10/18 00:58:40;;;;;;;4.10;2.42;;;9.70;99.90;;;;;;5031375;28;20661;-75
2023/10/18 01:01:09;;;;;;;2.80;2.10;;;9.60;99.90;;;;;;5031418;28;20235;-75
2023/10/18 01:03:41;;;;;;;3.30;2.25;;;9.60;99.90;;;;;;5031674;28;20192;-75
2023/10/18 01:06:26;;;;;;;3.67;1.77;;;9.60;99.90;;;;;;5031490;28;20271;-75
2023/10/18 01:08:53;;;;;;;2.40;1.67;;;9.50;99.90;;;;;;5017865;28;20197;-75
2023/10/18 01:11:28;;;;;;;5.05;2.20;;;9.50;99.90;;;;;;5031978;28;20173;-75
2023/10/18 01:13:55;;;;;;;4.20;2.08;;;9.50;99.90;;;;;;5013919;28;20292;-75
2023/10/18 01:16:22;;;;;;;5.15;3.28;;;9.50;99.90;;;;;;5031687;28;20178;-75
2023/10/18 01:18:49;;;;;;;3.17;2.00;;;9.50;99.90;;;;;;4997643;28;20190;-75
2023/10/18 01:21:20;;;;;;;3.20;2.75;;;9.50;99.90;;;;;;5028558;28;20289;-75
2023/10/18 01:23:55;;;;;;;4.38;2.15;;;9.50;99.90;;;;;;5015622;28;20181;-74
2023/10/18 01:26:22;;;;;;;4.10;2.20;;;9.40;99.90;;;;;;5014618;28;20713;-75
2023/10/18 01:28:48;;;;;;;3.90;2.60;;;9.40;99.90;;;;;;5047938;28;20243;-75
2023/10/18 01:31:14;;;;;;;4.22;2.70;;;9.40;99.90;;;;;;5047736;28;20178;-75
2023/10/18 01:33:45;;;;;;;3.30;2.40;;;9.40;99.90;;;;;;5031403;28;20228;-75
2023/10/18 01:36:14;;;;;;;3.55;1.80;;;9.40;99.90;;;;;;5014911;28;20185;-75
2023/10/18 01:38:42;;;;;;;2.45;1.80;;;9.40;99.90;;;;;;5031087;28;20293;-74
2023/10/18 01:41:25;;;;;;;4.60;1.90;;;9.40;99.90;;;;;;5031401;28;20176;-76
2023/10/18 01:44:10;;;;;;;2.45;2.08;;;9.40;99.90;;;;;;5032891;28;20217;-76
2023/10/18 01:46:45;;;;;;;2.45;1.88;;;9.40;99.90;;;;;;5025124;28;20211;-76
2023/10/18 01:49:13;;;;;;;2.67;1.83;;;9.40;99.90;;;;;;5014932;28;20276;-76
2023/10/18 01:51:43;;;;;;;2.00;1.30;;;9.40;99.90;;;;;;5031140;28;20177;-76
2023/10/18 01:54:15;;;;;;;2.90;2.03;;;9.40;99.90;;;;;;5031003;28;20209;-76
2023/10/18 01:56:43;;;;;;;3.28;1.83;;;9.40;99.90;;;;;;5031165;28;20169;-75
2023/10/18 01:59:14;;;;;;;2.45;1.70;;;9.40;99.90;;;;;;5014283;28;20265;-76
2023/10/18 02:01:44;;;;;;;4.82;2.40;;;9.40;99.90;;;;;;5014966;28;20180;-76
2023/10/18 02:04:23;;;;;;;3.60;2.65;;;9.40;99.90;;;;;;4998440;28;20196;-76
2023/10/18 02:06:51;;;;;;;2.92;2.00;;;9.40;99.90;;;;;;5031908;28;20217;-76
2023/10/18 02:09:19;;;;;;;2.67;1.50;;;9.40;99.90;;;;;;5048353;28;20178;-76
2023/10/18 02:11:45;;;;;;;4.40;2.38;;;9.40;99.90;;;;;;5031373;28;20182;-75
2023/10/18 02:14:13;;;;;;;3.50;2.60;;;9.40;99.90;;;;;;5031598;28;20256;-76
2023/10/18 02:16:41;;;;;;;2.97;2.10;;;9.40;99.90;;;;;;5031745;28;20200;-75
2023/10/18 02:19:08;;;;;;;3.60;2.05;;;9.40;99.90;;;;;;5031749;28;20736;-76
2023/10/18 02:21:37;;;;;;;4.30;2.20;;;9.40;99.90;;;;;;5014928;28;20169;-76
2023/10/18 02:24:02;;;;;;;2.42;1.75;;;9.50;99.90;;;;;;5032712;28;20174;-75
2023/10/18 02:26:31;;;;;;;2.70;2.20;;;9.50;99.90;;;;;;5014855;28;20185;-76
2023/10/18 02:29:12;;;;;;;2.42;1.65;;;9.50;99.90;;;;;;5039737;28;20636;-75
2023/10/18 02:31:40;;;;;;;4.47;2.92;;;9.50;99.90;;;;;;5036415;28;20271;-75
2023/10/18 02:34:06;;;;;;;3.05;1.88;;;9.50;99.90;;;;;;5043216;28;20193;-75
2023/10/18 02:36:38;;;;;;;2.87;2.00;;;9.50;99.90;;;;;;5021261;28;20269;-75
2023/10/18 02:39:06;;;;;;;4.10;1.83;;;9.50;99.90;;;;;;5037050;28;20620;-75
2023/10/18 02:41:37;;;;;;;2.95;2.08;;;9.50;99.90;;;;;;5033433;28;20181;-76
2023/10/18 02:44:10;;;;;;;3.03;2.10;;;9.50;99.90;;;;;;5051018;28;20200;-76
2023/10/18 02:46:36;;;;;;;2.75;2.15;;;9.50;99.90;;;;;;5043101;28;20196;-76
2023/10/18 02:49:07;;;;;;;5.33;1.93;;;9.50;99.90;;;;;;5018236;28;20209;-77
2023/10/18 02:51:33;;;;;;;2.85;1.70;;;9.50;99.90;;;;;;5051413;28;20177;-76
2023/10/18 02:54:17;;;;;;;3.00;1.97;;;9.50;99.90;;;;;;5052623;28;20206;-76
2023/10/18 02:56:50;;;;;;;2.80;2.17;;;9.50;99.90;;;;;;5036534;28;20580;-76
2023/10/18 02:59:18;;;;;;;2.90;1.95;;;9.50;99.90;;;;;;5036762;28;20178;-76
2023/10/18 03:01:44;;;;;;;3.10;2.15;;;9.50;99.90;;;;;;5051595;28;20196;-76
2023/10/18 03:04:16;;;;;;;3.40;1.65;;;9.50;99.90;;;;;;5035852;28;20189;-76
2023/10/18 03:06:45;;;;;;;2.55;1.80;;;9.50;99.90;;;;;;5051460;28;20182;-76
2023/10/18 03:11:56;;;;;;;3.40;2.10;;;9.50;99.90;;;;;;5030698;28;20224;-76
2023/10/18 03:14:26;;;;;;;2.83;1.70;;;9.50;99.90;;;;;;5014521;28;20217;-77
2023/10/18 03:16:55;;;;;;;4.93;2.40;;;9.50;99.90;;;;;;5030302;28;20178;-77
2023/10/18 03:19:22;;;;;;;3.72;2.67;;;9.50;99.90;;;;;;5029823;28;20180;-77
2023/10/18 03:21:50;;;;;;;2.03;1.40;;;9.50;99.90;;;;;;5029763;28;20181;-77
2023/10/18 03:24:19;;;;;;;2.78;2.10;;;9.50;99.90;;;;;;5013343;28;20670;-77
2023/10/18 03:26:45;;;;;;;3.15;1.77;;;9.50;99.90;;;;;;5030038;28;20270;-76
2023/10/18 03:29:11;;;;;;;2.00;1.55;;;9.50;99.90;;;;;;5029834;28;20189;-76
2023/10/18 03:31:41;;;;;;;2.87;1.90;;;9.50;99.90;;;;;;5030908;28;20177;-76
2023/10/18 03:34:41;;;;;;;6.03;2.10;;;9.50;99.90;;;;;;5030721;28;20575;-76
2023/10/18 03:36:59;;;;;;;2.55;2.10;;;9.50;99.90;;;;;;5030604;28;20193;-76
2023/10/18 03:39:25;;;;;;;3.50;2.00;;;9.50;99.90;;;;;;5033579;28;20170;-76
2023/10/18 03:41:52;;;;;;;4.83;2.13;;;9.50;99.90;;;;;;5032997;28;20591;-76
2023/10/18 03:44:21;;;;;;;2.90;1.45;;;9.50;99.90;;;;;;5033497;28;20193;-76
2023/10/18 03:46:48;;;;;;;2.53;1.80;;;9.50;99.90;;;;;;5033330;28;20185;-76
2023/10/18 03:50:00;;;;;;;2.67;2.00;;;9.50;99.90;;;;;;5016808;28;20185;-76
2023/10/18 03:57:39;;;;;;;3.10;1.85;;;9.50;99.90;;;;;;5018373;28;20201;-76
2023/10/18 04:00:28;;;;;;;4.10;2.70;;;9.50;99.90;;;;;;5049823;28;20225;-76
2023/10/18 04:02:59;;;;;;;2.58;2.20;;;9.40;99.90;;;;;;5034117;28;20207;-76
2023/10/18 04:05:42;;;;;;;2.90;2.60;;;9.40;99.90;;;;;;5049896;28;20185;-76
2023/10/18 04:08:15;;;;;;;3.30;1.90;;;9.40;99.90;;;;;;5032965;28;20205;-76
2023/10/18 04:10:44;;;;;;;2.25;1.85;;;9.40;99.90;;;;;;5033260;28;20205;-76
2023/10/18 04:13:11;;;;;;;2.40;1.95;;;9.40;99.90;;;;;;5034200;28;20209;-76
2023/10/18 04:15:45;;;;;;;3.80;2.50;;;9.40;99.90;;;;;;5034516;28;20248;-76
2023/10/18 04:18:12;;;;;;;3.40;1.88;;;9.40;99.90;;;;;;5033024;28;20194;-76
2023/10/18 04:20:43;;;;;;;3.22;2.40;;;9.40;99.90;;;;;;5032853;28;20181;-76
2023/10/18 04:23:18;;;;;;;4.72;1.95;;;9.40;99.90;;;;;;5016204;28;20332;-76
2023/10/18 04:25:57;;;;;;;3.88;2.22;;;9.40;99.90;;;;;;5034520;28;20188;-76
2023/10/18 04:28:30;;;;;;;2.80;1.80;;;9.40;99.90;;;;;;5033310;28;20193;-75
2023/10/18 04:31:03;;;;;;;2.13;1.40;;;9.40;99.90;;;;;;5024783;28;20189;-75
2023/10/18 04:33:37;;;;;;;3.95;2.67;;;9.40;99.90;;;;;;5039419;28;20213;-76
2023/10/18 04:36:11;;;;;;;3.55;1.77;;;9.40;99.90;;;;;;5043188;28;20174;-76
2023/10/18 04:38:44;;;;;;;3.25;1.95;;;9.40;99.90;;;;;;5034403;28;20292;-76
2023/10/18 04:41:23;;;;;;;3.92;1.83;;;9.40;99.90;;;;;;5008624;28;20178;-76
2023/10/18 04:44:01;;;;;;;4.20;1.88;;;9.50;99.90;;;;;;5025880;28;20231;-75
2023/10/18 04:46:29;;;;;;;4.47;2.40;;;9.40;99.90;;;;;;5049693;28;20197;-76
2023/10/18 04:51:29;;;;;;;3.00;2.08;;;9.50;99.90;;;;;;5035271;28;20189;-76
2023/10/18 04:53:56;;;;;;;3.22;2.55;;;9.50;99.90;;;;;;5025361;28;20216;-75
2023/10/18 04:56:29;;;;;;;3.20;1.60;;;9.40;99.90;;;;;;5025096;28;20210;-75
2023/10/18 04:58:59;;;;;;;3.13;2.05;;;9.40;99.90;;;;;;5027691;28;20206;-76
2023/10/18 05:01:34;;;;;;;4.40;1.80;;;9.50;99.90;;;;;;5005558;28;20182;-76
2023/10/18 05:04:18;;;;;;;5.35;2.22;;;9.50;99.90;;;;;;5041677;28;20208;-76
2023/10/18 05:06:45;;;;;;;3.67;2.75;;;9.50;99.90;;;;;;5028234;28;20238;-76
2023/10/18 05:09:12;;;;;;;5.93;2.55;;;9.50;99.90;;;;;;5034985;28;20174;-76
2023/10/18 05:11:47;;;;;;;3.30;2.58;;;9.50;99.90;;;;;;5046356;28;20190;-76
2023/10/18 05:14:19;;;;;;;3.88;2.42;;;9.50;99.90;;;;;;5046915;28;20197;-76
2023/10/18 05:16:46;;;;;;;3.15;1.95;;;9.50;99.90;;;;;;5033902;28;20181;-76
2023/10/18 05:19:13;;;;;;;3.10;2.03;;;9.50;99.90;;;;;;5041115;28;20252;-77
2023/10/18 05:21:39;;;;;;;3.30;2.30;;;9.50;99.90;;;;;;5036621;28;20259;-76
2023/10/18 05:24:05;;;;;;;4.05;2.70;;;9.50;99.90;;;;;;5033912;28;20173;-76
2023/10/18 05:26:34;;;;;;;2.60;2.28;;;9.50;99.90;;;;;;5031841;28;20239;-76
2023/10/18 05:29:03;;;;;;;4.28;2.35;;;9.50;99.90;;;;;;5031814;28;20204;-76
2023/10/18 05:31:49;;;;;;;3.45;2.05;;;9.50;99.90;;;;;;5031470;28;20169;-75
2023/10/18 05:41:48;;;;;;;3.35;2.47;;;9.60;99.90;;;;;;5031956;28;20182;-76
2023/10/18 05:44:14;;;;;;;2.60;2.15;;;9.50;99.90;;;;;;5033083;28;20543;-75
2023/10/18 05:46:41;;;;;;;2.70;1.90;;;9.60;99.90;;;;;;5033273;28;20193;-76
2023/10/18 05:49:16;;;;;;;3.22;1.92;;;9.60;99.90;;;;;;5031567;28;20683;-74
2023/10/18 05:51:51;;;;;;;3.58;2.67;;;9.60;99.90;;;;;;5033517;28;20197;-75
2023/10/18 05:54:21;;;;;;;3.78;1.90;;;9.60;99.90;;;;;;5031166;28;20221;-74
2023/10/18 05:56:52;;;;;;;4.50;2.45;;;9.60;99.90;;;;;;5039320;28;20264;-75
2023/10/18 06:01:48;;;;;;;4.07;1.92;;;9.60;99.90;;;;;;5024249;28;20201;-76
2023/10/18 06:04:24;;;;;;;6.15;2.72;;;9.60;99.90;;;;;;5059040;28;20269;-76
2023/10/18 06:06:51;;;;;;;3.05;2.25;;;9.60;99.90;;;;;;5036384;28;20195;-76
2023/10/18 06:10:13;;;;;;;6.40;2.55;;;9.60;99.90;;;;;;5042896;28;20289;-76
2023/10/18 06:12:06;;;;;;;5.13;2.60;;;9.50;99.90;;;;;;5044047;28;20197;-77
2023/10/18 06:14:40;;;;;;;4.50;2.72;;;9.60;99.90;;;;;;5021467;28;20296;-75
2023/10/18 06:17:08;;;;;;;3.33;2.92;;;9.60;99.90;;;;;;5032971;28;20194;-75
2023/10/18 06:19:36;;;;;;;4.18;2.55;;;9.60;99.90;;;;;;5035104;28;20190;-75
2023/10/18 06:22:14;;;;;;;3.72;2.38;;;9.60;99.90;;;;;;5030743;28;20215;-75
2023/10/18 06:24:42;;;;;;;4.90;3.58;;;9.50;99.90;;;;;;5032859;28;20185;-76
2023/10/18 06:27:15;;;;;;;3.28;2.95;;;9.60;99.90;;;;;;5033654;28;20189;-75
2023/10/18 06:29:42;;;;;;;3.38;2.20;;;9.60;99.90;;;;;;5048492;28;20766;-76
2023/10/18 06:32:13;;;;;;;3.78;2.70;;;9.60;99.90;;;;;;5036003;28;20178;-77
2023/10/18 06:34:43;;;;;;;3.95;2.95;;;9.60;99.90;;;;;;5030698;28;20174;-75
2023/10/18 06:37:31;;;;;;;5.35;3.60;;;9.60;99.90;;;;;;5029834;28;20198;-75
2023/10/18 06:40:00;;;;;;;4.05;3.00;;;9.70;99.90;;;;;;5030626;28;20265;-75
2023/10/18 06:42:27;;;;;;;3.20;2.90;;;9.70;99.90;;;;;;5013659;28;20181;-74
2023/10/18 06:44:54;;;;;;;5.30;3.00;;;9.70;99.90;;;;;;5030012;28;20178;-75
2023/10/18 06:47:30;;;;;;;6.43;2.95;;;9.80;99.90;;;;;;5029367;28;20205;-75
2023/10/18 06:49:58;;;;;;;6.32;3.70;;;9.80;99.90;;;;;;5030091;28;20170;-75
2023/10/18 06:52:30;;;;;;;3.10;2.55;;;9.80;99.90;;;;;;5032936;28;20233;-76
2023/10/18 06:54:56;;;;;;;5.03;3.20;;;9.90;99.90;;;;;;5038566;28;20177;-76
2023/10/18 06:57:27;;;;;;;5.00;3.90;;;9.90;99.90;;;;;;5035246;28;20189;-75
2023/10/18 06:59:55;;;;;;;7.25;4.25;;;10.00;99.90;;;;;;5030258;28;20169;-75
2023/10/18 07:02:27;;;;;;;4.55;4.13;;;10.00;99.90;;;;;;5031220;28;20174;-76
2023/10/18 07:04:56;;;;;;;6.72;3.72;;;10.10;99.90;;;;;;5035817;28;20264;-76
2023/10/18 07:07:26;;;;;;;7.03;3.60;;;10.10;99.90;;;;;;5037705;28;20354;-76
2023/10/18 07:09:53;;;;;;;5.10;3.50;;;10.20;99.90;;;;;;5038484;28;20169;-76
2023/10/18 07:12:28;;;;;;;10.13;4.20;;;10.20;99.90;;;;;;5053359;28;20166;-74
2023/10/18 07:14:57;;;;;;;5.65;3.90;;;10.30;99.90;;;;;;5021495;28;20172;-75
2023/10/18 07:17:24;;;;;;;5.50;4.15;;;10.40;99.90;;;;;;5030495;28;20283;-75
2023/10/18 07:19:55;;;;;;;7.20;4.70;;;10.40;99.90;;;;;;5031363;28;20185;-75
2023/10/18 07:22:39;;;;;;;4.28;3.88;;;10.50;99.90;;;;;;5030988;28;20202;-75
2023/10/18 07:25:08;;;;;;;5.88;3.85;;;10.50;99.90;;;;;;5024650;28;20170;-75
2023/10/18 07:27:39;;;;;;;4.97;3.40;;;10.60;99.90;;;;;;5029569;28;20202;-75
2023/10/18 07:30:14;;;;;;;6.55;4.22;;;10.80;99.90;;;;;;5031009;28;20319;-75
2023/10/18 07:32:40;;;;;;;5.43;3.42;;;10.80;99.90;;;;;;5037157;28;20201;-76
2023/10/18 07:35:06;;;;;;;4.07;2.58;;;10.90;99.90;;;;;;5032169;28;20268;-75
2023/10/18 07:37:39;;;;;;;5.90;4.87;;;11.10;99.90;;;;;;5029285;28;20273;-74
2023/10/18 07:40:10;;;;;;;6.30;4.10;;;11.10;99.90;;;;;;5030733;28;20579;-75
2023/10/18 07:42:43;;;;;;;7.60;4.07;;;11.10;99.90;;;;;;5030319;28;20601;-75
2023/10/18 07:45:14;;;;;;;7.15;4.55;;;11.20;99.90;;;;;;5046018;28;20213;-75
2023/10/18 07:47:40;;;;;;;17.27;5.38;;;11.30;99.90;;;;;;5029243;28;20228;-75
2023/10/18 07:52:54;;;;;;;9.07;5.00;;;11.50;99.90;;;;;;5028946;28;20645;-75
2023/10/18 07:55:24;;;;;;;8.30;5.20;;;11.50;99.90;;;;;;5028699;28;20235;-76
2023/10/18 07:57:50;;;;;;;10.27;5.40;;;11.50;99.90;;;;;;5030297;28;20209;-75
2023/10/18 08:00:22;;;;;;;10.68;5.60;;;11.60;99.90;;;;;;5038778;28;20166;-75
2023/10/18 08:02:51;;;;;;;5.22;4.70;;;11.60;99.90;;;;;;5030557;28;20194;-75
2023/10/18 08:05:23;;;;;;;10.35;6.18;;;11.70;99.90;;;;;;5028563;28;20260;-75
2023/10/18 08:07:50;;;;;;;6.45;5.85;;;11.80;99.90;;;;;;5029756;28;20222;-75
2023/10/18 08:10:19;;;;;;;11.88;5.68;;;11.90;99.90;;;;;;5030501;28;20181;-75
2023/10/18 08:12:57;;;;;;;8.93;5.00;;;12.00;99.90;;;;;;5030274;28;20213;-75
2023/10/18 08:15:23;;;;;;;4.93;4.43;;;12.10;99.90;;;;;;5030295;28;20182;-75
2023/10/18 08:17:50;;;;;;;7.20;5.70;;;12.20;99.90;;;;;;5029817;28;20189;-75
2023/10/18 08:22:53;;;;;;;5.93;5.32;;;12.60;99.90;;;;;;5029671;28;20639;-75
2023/10/18 08:25:21;;;;;;;8.60;5.72;;;12.70;99.90;;;;;;5033193;28;20182;-75
2023/10/18 08:27:54;;;;;;;5.07;4.10;;;12.80;99.90;;;;;;5031668;28;20200;-75
2023/10/18 08:31:02;;;;;;;5.17;3.90;;;12.90;99.90;;;;;;5033910;28;20580;-75
2023/10/18 08:33:24;;;;;;;10.23;4.77;;;13.10;99.90;;;;;;5033347;28;20643;-76
2023/10/18 08:35:58;;;;;;;9.53;5.17;;;13.30;99.90;;;;;;5032443;28;20584;-76
2023/10/18 08:38:28;;;;;;;5.73;4.20;;;13.40;99.90;;;;;;5031639;28;20311;-75
2023/10/18 08:41:13;;;;;;;5.00;4.37;;;13.60;99.90;;;;;;5032040;28;20564;-75
2023/10/18 08:43:45;;;;;;;6.10;4.63;;;13.70;99.90;;;;;;5033702;28;20596;-76
2023/10/18 08:46:11;;;;;;;6.87;4.30;;;14.00;99.90;;;;;;5035898;28;20584;-76
2023/10/18 08:48:42;;;;;;;8.47;5.80;;;14.40;99.90;;;;;;5033734;28;20638;-76
2023/10/18 08:51:09;;;;;;;7.60;5.80;;;14.60;99.90;;;;;;5031559;28;20525;-76
2023/10/18 08:53:41;;;;;;;5.70;4.50;;;14.60;99.90;;;;;;5034288;28;20631;-76
2023/10/18 08:56:08;;;;;;;6.17;4.50;;;14.70;99.90;;;;;;5034681;28;20580;-76
2023/10/18 08:58:37;;;;;;;5.37;3.70;;;14.70;99.90;;;;;;5037294;28;20670;-76
2023/10/18 09:01:03;;;;;;;6.60;4.83;;;14.80;99.90;;;;;;5032519;28;20650;-76
2023/10/18 09:03:29;;;;;;;5.43;4.83;;;14.90;99.90;;;;;;5037114;28;20600;-76
2023/10/18 09:06:07;;;;;;;7.73;5.93;;;15.00;99.90;;;;;;5034541;28;20218;-76
2023/10/18 09:09:00;;;;;;;5.70;4.97;;;15.00;99.90;;;;;;5034922;28;20623;-76
2023/10/18 09:11:27;;;;;;;6.73;4.90;;;15.20;99.90;;;;;;5037714;28;20668;-76
2023/10/18 09:14:08;;;;;;;6.77;5.23;;;15.40;99.90;;;;;;5039025;28;20639;-76
2023/10/18 09:16:42;;;;;;;6.50;4.57;;;15.60;99.90;;;;;;5036203;28;20690;-76
2023/10/18 09:19:11;;;;;;;8.23;5.47;;;15.90;99.90;;;;;;5039231;28;20615;-75
2023/10/18 09:24:09;;;;;;;7.87;4.90;;;15.90;99.60;;;;;;5035326;28;20662;-75
2023/10/18 09:26:41;;;;;;;17.57;5.03;;;15.90;99.80;;;;;;5033584;28;21200;-76
2023/10/18 09:29:11;;;;;;;6.73;4.70;;;16.10;99.90;;;;;;5015268;28;20616;-76
2023/10/18 09:31:53;;;;;;;5.43;4.47;;;16.10;99.60;;;;;;5032742;28;20584;-76
2023/10/18 09:34:19;;;;;;;5.10;4.17;;;16.20;99.00;;;;;;5031634;28;20725;-76
2023/10/18 09:36:56;;;;;;;8.50;5.07;;;16.20;98.10;;;;;;5032496;28;20596;-76
2023/10/18 09:39:24;;;;;;;9.13;5.87;;;16.10;98.00;;;;;;5033691;28;20576;-76
2023/10/18 09:41:50;;;;;;;8.23;5.33;;;16.00;97.80;;;;;;5017836;28;20710;-76
2023/10/18 09:44:18;;;;;;;5.87;4.37;;;16.10;98.30;;;;;;5035324;28;20615;-76
2023/10/18 09:46:48;;;;;;;4.83;4.33;;;16.20;98.70;;;;;;5032683;28;20258;-76
2023/10/18 09:49:25;;;;;;;5.53;4.37;;;16.60;98.70;;;;;;5033523;28;20591;-76
2023/10/18 09:51:55;;;;;;;6.43;4.70;;;17.10;98.30;;;;;;5034788;28;20734;-76
2023/10/18 09:54:22;;;;;;;4.50;3.87;;;17.80;99.60;;;;;;5034681;28;20636;-76
2023/10/18 09:56:52;;;;;;;7.87;4.30;;;18.50;99.80;;;;;;5031775;28;20585;-75
2023/10/18 09:59:26;;;;;;;6.77;4.00;;;19.00;97.90;;;;;;5020124;28;20581;-76
2023/10/18 10:02:07;;;;;;;4.07;3.20;;;19.50;98.90;;;;;;5030384;28;20612;-76
2023/10/18 10:04:35;;;;;;;6.27;3.80;;;19.90;95.80;;;;;;5039298;28;20957;-76
2023/10/18 10:09:50;;;;;;;3.70;3.30;;;20.20;93.90;;;;;;5032850;28;20946;-76
2023/10/18 10:12:17;;;;;;;5.70;3.50;;;20.60;93.30;;;;;;5033417;28;20584;-76
2023/10/18 10:14:43;;;;;;;4.63;2.80;;;20.70;93.80;;;;;;5036648;28;20716;-76
2023/10/18 10:17:15;;;;;;;5.50;3.53;;;20.80;91.20;;;;;;5033027;28;20635;-76
2023/10/18 10:19:46;;;;;;;4.13;2.60;;;20.90;90.70;;;;;;5031781;28;20691;-75
2023/10/18 10:22:15;;;;;;;4.73;3.30;;;21.10;90.80;;;;;;5030274;28;20603;-76
2023/10/18 10:24:42;;;;;;;5.10;3.20;;;21.10;86.40;;;;;;5031676;28;20588;-76
2023/10/18 10:27:27;;;;;;;4.10;3.17;;;21.00;79.00;;;;;;5030504;28;20652;-75
2023/10/18 10:29:56;;;;;;;4.80;2.70;;;20.90;77.40;;;;;;5031606;28;20646;-75
2023/10/18 10:32:24;;;;;;;5.20;3.23;;;20.70;73.70;;;;;;5030265;28;20962;-74
2023/10/18 10:35:09;;;;;;;4.70;2.60;;;20.60;78.50;;;;;;5031239;28;20979;-74
2023/10/18 10:37:49;;;;;;;5.80;3.07;;;20.50;77.70;;;;;;5029287;28;21021;-74
2023/10/18 10:40:19;;;;;;;4.50;2.60;;;20.40;74.30;;;;;;5031293;28;20937;-74
2023/10/18 10:42:50;;;;;;;4.57;2.50;;;20.40;77.10;;;;;;5046209;28;20589;-74
2023/10/18 10:45:37;;;;;;;4.03;2.37;;;20.40;78.20;;;;;;5031024;28;20612;-75
2023/10/18 10:48:21;;;;;;;3.63;2.27;;;20.40;77.60;;;;;;5014064;28;20732;-75
2023/10/18 10:50:51;;;;;;;4.33;2.23;;;20.60;78.50;;;;;;5033747;28;20662;-75
2023/10/18 10:53:48;;;;;;;3.30;2.10;;;20.60;77.30;;;;;;5030759;28;20671;-75
2023/10/18 10:56:32;;;;;;;3.20;1.73;;;20.50;73.00;;;;;;5032823;28;20587;-76
2023/10/18 10:59:03;;;;;;;4.43;2.30;;;20.50;76.00;;;;;;5033870;28;20625;-75
2023/10/18 11:01:57;;;;;;;3.97;2.20;;;20.50;75.60;;;;;;5030632;28;20587;-74
2023/10/18 11:04:28;;;;;;;4.03;2.33;;;20.40;75.80;;;;;;5030874;28;20589;-75
2023/10/18 11:07:00;;;;;;;4.13;2.10;;;20.40;77.70;;;;;;5040464;28;20618;-75
2023/10/18 11:09:33;;;;;;;4.10;2.83;;;20.50;77.00;;;;;;5025861;28;20591;-75
2023/10/18 11:12:08;;;;;;;2.63;1.80;;;20.50;74.30;;;;;;5031387;28;20606;-74
2023/10/18 11:14:37;;;;;;;5.13;2.00;;;20.40;75.00;;;;;;5034432;28;20632;-74
2023/10/18 11:19:58;;;;;;;3.03;1.93;;;20.30;74.20;;;;;;5029639;28;20680;-74
2023/10/18 11:22:24;;;;;;;3.40;2.20;;;20.20;74.00;;;;;;5023663;28;20587;-76
2023/10/18 11:24:51;;;;;;;4.70;2.20;;;20.10;74.20;;;;;;5030670;28;20576;-76
2023/10/18 11:27:33;;;;;;;4.30;2.13;;;19.90;73.60;;;;;;5031041;28;20206;-75
2023/10/18 11:30:15;;;;;;;6.57;3.27;;;19.80;74.50;;;;;;5031079;28;20576;-75
2023/10/18 11:32:43;;;;;;;5.73;3.43;;;19.60;73.90;;;;;;5029362;28;20628;-76
2023/10/18 11:35:09;;;;;;;6.50;3.37;;;19.50;74.00;;;;;;5032708;28;20584;-76
2023/10/18 11:37:37;;;;;;;3.30;1.90;;;19.50;73.20;;;;;;5038717;28;20624;-76
2023/10/18 11:40:18;;;;;;;3.67;2.30;;;19.30;71.80;;;;;;5035326;28;20595;-76
2023/10/18 11:43:10;;;;;;;3.33;1.70;;;19.20;70.80;;;;;;5031149;28;20650;-76
2023/10/18 11:45:38;;;;;;;2.87;1.53;;;19.20;72.30;;;;;;5031014;28;20627;-75
2023/10/18 11:48:06;;;;;;;2.70;1.80;;;19.10;71.00;;;;;;5033951;28;20705;-76
2023/10/18 11:50:47;;;;;;;2.20;1.53;;;19.10;72.70;;;;;;5017298;28;20620;-75
2023/10/18 11:53:23;;;;;;;3.27;1.70;;;19.10;70.00;;;;;;5025977;28;20643;-75
2023/10/18 11:56:02;;;;;;;2.50;1.60;;;19.00;70.70;;;;;;5029928;28;20757;-75
2023/10/18 11:58:30;;;;;;;4.50;1.23;;;18.80;71.00;;;;;;5029544;28;20611;-75
2023/10/18 12:01:05;;;;;;;6.90;2.50;;;18.80;72.20;;;;;;5036741;28;20580;-75
2023/10/18 12:03:35;;;;;;;4.37;1.80;;;18.80;72.40;;;;;;5034937;28;20618;-75
2023/10/18 12:06:03;;;;;;;4.60;1.27;;;18.70;72.10;;;;;;5050314;28;20592;-74
2023/10/18 12:08:40;;;;;;;4.43;2.10;;;18.70;73.40;;;;;;5034828;28;20951;-74
2023/10/18 12:11:08;;;;;;;4.33;1.97;;;18.80;74.20;;;;;;5033298;28;20977;-75
2023/10/18 12:13:34;;;;;;;3.57;1.90;;;18.90;74.00;;;;;;5030452;28;20623;-75
2023/10/18 12:16:00;;;;;;;4.03;1.97;;;19.00;73.70;;;;;;5035269;28;20589;-75
2023/10/18 12:18:32;;;;;;;4.20;1.40;;;19.00;73.50;;;;;;5033804;28;20204;-74
2023/10/18 12:20:57;;;;;;;3.80;1.30;;;19.00;72.30;;;;;;5032538;28;20580;-74
2023/10/18 12:23:25;;;;;;;2.93;1.17;;;19.00;73.80;;;;;;5032704;28;20587;-74
2023/10/18 12:25:50;;;;;;;2.33;1.13;;;19.00;73.30;;;;;;5033044;28;20182;-75
2023/10/18 12:28:27;;;;;;;2.90;1.50;;;19.10;73.30;;;;;;5048910;28;20935;-75
2023/10/18 12:30:55;;;;;;;3.60;1.50;;;19.10;72.00;;;;;;5037596;28;20588;-75
2023/10/18 12:33:27;;;;;;;3.07;1.00;;;19.10;73.30;;;;;;5034962;28;20670;-75
2023/10/18 12:35:56;;;;;;;3.23;1.30;;;19.10;72.40;;;;;;5049599;28;20950;-75
2023/10/18 12:38:32;;;;;;;3.80;1.73;;;19.00;71.00;;;;;;5033411;28;21188;-75
2023/10/18 12:41:07;;;;;;;5.80;2.70;;;18.90;70.50;;;;;;5034577;28;20584;-74
2023/10/18 12:43:38;;;;;;;3.97;1.27;;;18.80;71.40;;;;;;5033863;28;20572;-75
2023/10/18 12:46:04;;;;;;;3.13;1.73;;;18.90;73.00;;;;;;5036984;28;20584;-76
2023/10/18 12:48:31;;;;;;;4.83;1.47;;;18.90;73.00;;;;;;5036079;28;20632;-76
2023/10/18 12:50:58;;;;;;;4.63;1.23;;;18.90;72.90;;;;;;5039654;28;20732;-75
2023/10/18 12:58:47;;;;;;;5.80;1.90;;;18.70;72.80;;;;;;5031736;28;20204;-75
2023/10/18 13:01:16;;;;;;;3.00;1.30;;;18.70;73.70;;;;;;5023573;28;20886;-74
2023/10/18 13:03:45;;;;;;;4.00;1.40;;;18.70;74.00;;;;;;5031824;28;21166;-75
2023/10/18 13:06:17;;;;;;;3.17;1.30;;;18.70;73.50;;;;;;5032913;28;20590;-75
2023/10/18 13:08:56;;;;;;;4.07;1.00;;;18.70;72.80;;;;;;5032963;28;20982;-74
2023/10/18 13:14:07;;;;;;;2.87;1.30;;;18.70;72.90;;;;;;5033118;28;20661;-74
2023/10/18 13:16:33;;;;;;;2.00;1.10;;;18.70;73.20;;;;;;5031327;28;20573;-74
2023/10/18 13:18:59;;;;;;;3.73;2.03;;;18.60;73.30;;;;;;5032032;28;20624;-75
2023/10/18 13:21:27;;;;;;;5.93;2.47;;;18.60;73.20;;;;;;5032762;28;20585;-74
2023/10/18 13:24:16;;;;;;;2.93;1.67;;;18.60;73.80;;;;;;5032733;28;20589;-75
2023/10/18 13:26:51;;;;;;;2.50;1.40;;;18.60;74.20;;;;;;5032806;28;20596;-73
2023/10/18 13:29:30;;;;;;;3.80;1.20;;;18.60;74.60;;;;;;5024116;28;21086;-73
2023/10/18 13:32:05;;;;;;;2.27;1.30;;;18.60;74.00;;;;;;5026300;28;20963;-73
2023/10/18 13:34:37;;;;;;;3.47;1.80;;;18.60;74.50;;;;;;5032393;28;20639;-73
2023/10/18 13:37:04;;;;;;;3.50;1.40;;;18.60;74.40;;;;;;5032421;28;20587;-74
2023/10/18 13:39:31;;;;;;;3.30;1.00;;;18.60;74.30;;;;;;5032644;28;20612;-73
2023/10/18 13:41:56;;;;;;;3.13;1.50;;;18.60;74.70;;;;;;5034262;28;20588;-74
2023/10/18 13:44:23;;;;;;;2.50;1.37;;;18.60;74.00;;;;;;5032239;28;20575;-74
2023/10/18 13:46:54;;;;;;;8.97;1.70;;;18.40;74.40;;;;;;5032024;28;20193;-73
2023/10/18 13:49:24;;;;;;;4.17;1.63;;;18.40;74.40;;;;;;5030981;28;20584;-73
2023/10/18 13:51:51;;;;;;;4.20;2.17;;;18.30;74.20;;;;;;5031949;28;20589;-73
2023/10/18 13:54:18;;;;;;;3.20;1.60;;;18.30;74.40;;;;;;5030707;28;20628;-73
2023/10/18 13:56:44;;;;;;;2.57;1.30;;;18.30;75.10;;;;;;5047565;28;20588;-76